AEROCLUB DE PEZENAS
AEROPORT DE BEZIERS CAP D'AGDE
34420 PORTIRAGNES
TEL: 04.67.01.57.94
contact@aeroclub-pezenas.com
WINDOW MODE | FULLSCREEN MODE
2018/08/21 19:30 LFMU 211930Z AUTO 00000KT CAVOK 26/16 Q1015 NOSIG
DOCUMENTS OFFICIELS

REGLEMENT INTERIEUR STATUTS AGO 28/06/2015 COMPTE RENDU DU COMMITE DIRECTEUR - 03/04/2016